Time;durP1;ratioP1;P1;durP2;ratioP2;P2;SDS_P1;SDS_P2;PMS_P1;PMS_P2;Temp;Humidity;BMP_temperature;BMP_pressure;BME280_temperature;BME280_humidity;BME280_pressure;Samples;Min_cycle;Max_cycle;Signal;HPM_P1;HPM_P2
2021/07/26 00:01:24;;;;;;;23.50;21.33;;;;;;;23.01;63.14;100527.66;5061141;28;20184;-67
2021/07/26 00:03:50;;;;;;;23.03;20.93;;;;;;;23.02;63.34;100535.56;5061276;28;20178;-67
2021/07/26 00:06:15;;;;;;;23.13;21.13;;;;;;;22.84;63.67;100539.91;5060897;28;20215;-66
2021/07/26 00:08:41;;;;;;;23.00;21.00;;;;;;;22.96;63.57;100534.97;5060804;28;20165;-67
2021/07/26 00:11:08;;;;;;;21.97;20.07;;;;;;;23.07;63.27;100542.47;5061114;28;20190;-68
2021/07/26 00:13:34;;;;;;;22.30;20.40;;;;;;;22.75;64.52;100539.47;5060542;28;20423;-67
2021/07/26 00:15:59;;;;;;;22.43;20.53;;;;;;;22.49;65.16;100538.81;5060916;28;20412;-69
2021/07/26 00:18:27;;;;;;;23.10;21.10;;;;;;;22.43;65.77;100536.41;5061094;28;20158;-69
2021/07/26 00:20:53;;;;;;;22.00;20.03;;;;;;;22.64;64.61;100545.25;5060465;28;20177;-68
2021/07/26 00:23:18;;;;;;;23.40;21.30;;;;;;;22.26;66.52;100543.28;5060050;28;20551;-68
2021/07/26 00:25:43;;;;;;;25.07;22.97;;;;;;;22.35;66.06;100550.91;5060792;28;20543;-68
2021/07/26 00:28:09;;;;;;;22.33;20.43;;;;;;;22.20;66.34;100554.16;5060224;28;20438;-68
2021/07/26 00:30:35;;;;;;;22.50;20.50;;;;;;;22.57;65.13;100543.78;5060262;28;20243;-68
2021/07/26 00:33:00;;;;;;;23.37;21.23;;;;;;;22.37;65.90;100548.19;5060568;28;20169;-66
2021/07/26 00:35:26;;;;;;;22.53;20.60;;;;;;;22.62;64.69;100540.00;5060103;28;20730;-67
2021/07/26 00:37:51;;;;;;;23.00;21.00;;;;;;;22.55;64.89;100535.88;5060161;28;20407;-67
2021/07/26 00:40:17;;;;;;;23.40;21.37;;;;;;;22.60;65.16;100533.03;5060577;28;20253;-67
2021/07/26 00:42:42;;;;;;;23.30;21.23;;;;;;;22.46;65.31;100537.16;5059825;28;20174;-67
2021/07/26 00:45:08;;;;;;;22.90;21.10;;;;;;;22.62;64.83;100532.03;5060084;28;20705;-66
2021/07/26 00:47:33;;;;;;;23.37;21.37;;;;;;;22.27;65.91;100541.50;5060254;28;20219;-67
2021/07/26 00:49:59;;;;;;;21.83;20.03;;;;;;;21.39;68.97;100553.81;5059890;28;20212;-66
2021/07/26 00:52:25;;;;;;;20.93;19.03;;;;;;;21.15;70.42;100551.19;5059131;28;20174;-67
2021/07/26 00:54:51;;;;;;;21.97;20.00;;;;;;;21.06;70.67;100550.66;5060031;28;20261;-66
2021/07/26 00:57:17;;;;;;;20.30;18.63;;;;;;;21.67;68.66;100542.16;5058927;28;20499;-66
2021/07/26 00:59:43;;;;;;;21.43;19.53;;;;;;;22.14;66.83;100546.47;5058785;28;20424;-66
2021/07/26 01:02:08;;;;;;;21.17;18.97;;;;;;;22.08;67.01;100541.41;5059557;28;20417;-67
2021/07/26 01:04:33;;;;;;;22.07;20.03;;;;;;;22.09;66.89;100527.19;5059085;28;20604;-67
2021/07/26 01:06:59;;;;;;;21.10;19.30;;;;;;;21.46;68.62;100534.09;5059496;28;20473;-67
2021/07/26 01:09:25;;;;;;;20.60;18.80;;;;;;;21.84;67.79;100542.34;5059973;28;20179;-67
2021/07/26 01:11:50;;;;;;;23.33;21.17;;;;;;;22.12;66.73;100538.56;5059441;28;20207;-67
2021/07/26 01:14:16;;;;;;;21.60;19.70;;;;;;;22.01;67.24;100541.66;5059290;28;20173;-67
2021/07/26 01:16:45;;;;;;;22.53;20.30;;;;;;;22.11;66.44;100542.16;5059064;28;20208;-67
2021/07/26 01:19:11;;;;;;;23.27;21.10;;;;;;;22.27;66.33;100544.16;5060011;28;20208;-67
2021/07/26 01:21:36;;;;;;;21.37;19.60;;;;;;;22.29;66.08;100548.47;5059294;28;20647;-67
2021/07/26 01:24:02;;;;;;;23.70;21.50;;;;;;;21.64;67.81;100544.94;5059053;28;20525;-67
2021/07/26 01:26:28;;;;;;;20.67;18.67;;;;;;;20.98;70.65;100550.94;5059131;28;20247;-66
2021/07/26 01:28:55;;;;;;;22.00;19.93;;;;;;;20.71;72.06;100553.66;5059588;28;20173;-67
2021/07/26 01:31:20;;;;;;;20.60;18.90;;;;;;;20.94;71.25;100557.28;5059095;28;20177;-66
2021/07/26 01:33:47;;;;;;;20.23;18.53;;;;;;;20.66;72.03;100560.88;5058958;28;20417;-66
2021/07/26 01:36:14;;;;;;;21.00;19.20;;;;;;;21.08;70.72;100559.41;5059545;28;20180;-66
2021/07/26 01:38:39;;;;;;;22.07;19.97;;;;;;;20.76;71.48;100570.25;5059036;28;20407;-66
2021/07/26 01:41:07;;;;;;;21.63;19.73;;;;;;;20.73;71.89;100569.50;5058914;28;20418;-66
2021/07/26 01:43:33;;;;;;;22.27;20.13;;;;;;;21.43;69.26;100565.16;5059266;28;20172;-67
2021/07/26 01:46:11;;;;;;;21.57;19.77;;;;;;;21.76;68.17;100560.38;5058757;28;20464;-67
2021/07/26 01:48:50;;;;;;;21.40;19.50;;;;;;;20.92;70.58;100575.00;5058881;28;20173;-67
2021/07/26 01:51:31;;;;;;;22.60;20.60;;;;;;;20.51;72.99;100580.81;5058888;28;20545;-67
2021/07/26 01:53:57;;;;;;;21.40;19.50;;;;;;;20.48;73.26;100575.63;5057930;28;20416;-67
2021/07/26 01:56:23;;;;;;;25.00;22.57;;;;;;;21.31;70.09;100571.78;5057888;28;20427;-68
2021/07/26 01:58:48;;;;;;;22.70;20.70;;;;;;;21.68;68.31;100571.28;5058717;28;20197;-67
2021/07/26 02:01:14;;;;;;;21.83;19.93;;;;;;;21.84;67.84;100565.38;5059025;28;20170;-67
2021/07/26 02:03:39;;;;;;;21.70;19.70;;;;;;;21.15;69.66;100572.38;5058383;28;20184;-67
2021/07/26 02:06:04;;;;;;;21.23;19.33;;;;;;;21.04;71.18;100585.19;5058393;28;20212;-66
2021/07/26 02:08:29;;;;;;;21.27;19.30;;;;;;;21.64;68.84;100580.28;5059161;28;20249;-67
2021/07/26 02:10:55;;;;;;;22.77;20.67;;;;;;;20.96;70.58;100579.28;5058481;28;20174;-67
2021/07/26 02:13:20;;;;;;;22.50;20.50;;;;;;;21.13;70.33;100581.31;5058167;28;20169;-67
2021/07/26 02:15:45;;;;;;;22.40;20.40;;;;;;;21.59;68.58;100571.63;5058738;28;20162;-67
2021/07/26 02:18:11;;;;;;;22.33;20.23;;;;;;;21.38;69.24;100573.31;5058228;28;20181;-66
2021/07/26 02:20:36;;;;;;;24.90;22.57;;;;;;;21.80;67.91;100567.28;5058262;28;20173;-67
2021/07/26 02:23:01;;;;;;;22.10;20.20;;;;;;;22.09;66.87;100573.19;5058260;28;20214;-67
2021/07/26 02:25:27;;;;;;;22.40;20.40;;;;;;;21.72;67.98;100579.09;5058154;28;20309;-67
2021/07/26 02:27:52;;;;;;;23.03;21.07;;;;;;;21.86;67.75;100571.47;5058335;28;20166;-67
2021/07/26 02:30:17;;;;;;;22.37;20.13;;;;;;;21.75;68.17;100584.31;5057970;28;20225;-67
2021/07/26 02:32:43;;;;;;;22.33;20.40;;;;;;;21.66;68.67;100583.75;5057965;28;20169;-67
2021/07/26 02:35:09;;;;;;;20.97;19.17;;;;;;;21.92;67.37;100578.31;5058608;28;20161;-67
2021/07/26 02:37:34;;;;;;;22.13;20.00;;;;;;;21.50;69.31;100572.84;5058012;28;20332;-67
2021/07/26 02:40:00;;;;;;;22.80;20.80;;;;;;;21.74;68.74;100571.97;5057925;28;20495;-68
2021/07/26 02:42:25;;;;;;;23.63;21.63;;;;;;;21.53;69.13;100570.09;5058576;28;20166;-67
2021/07/26 02:44:50;;;;;;;22.40;20.33;;;;;;;21.62;69.03;100568.00;5057656;28;20235;-67
2021/07/26 02:47:16;;;;;;;23.80;21.80;;;;;;;21.79;68.30;100565.53;5057699;28;20205;-67
2021/07/26 02:49:41;;;;;;;23.87;21.67;;;;;;;21.79;67.91;100572.66;5058418;28;20173;-66
2021/07/26 02:52:06;;;;;;;22.33;20.30;;;;;;;21.99;67.57;100567.41;5057830;28;20184;-67
2021/07/26 02:54:32;;;;;;;25.10;22.90;;;;;;;21.52;69.47;100576.28;5057688;28;20252;-67
2021/07/26 02:56:57;;;;;;;22.70;20.80;;;;;;;21.52;69.84;100570.97;5058173;28;20203;-67
2021/07/26 02:59:22;;;;;;;24.30;21.90;;;;;;;21.76;68.87;100565.69;5057817;28;20359;-66
2021/07/26 03:01:51;;;;;;;25.43;23.00;;;;;;;21.52;69.47;100570.97;5057768;28;20169;-66
2021/07/26 03:04:16;;;;;;;24.23;22.20;;;;;;;21.76;68.74;100571.00;5057910;28;20197;-66
2021/07/26 03:06:41;;;;;;;23.40;21.40;;;;;;;21.83;68.53;100568.94;5057558;28;20904;-67
2021/07/26 03:09:07;;;;;;;23.40;21.40;;;;;;;21.36;69.40;100568.06;5057781;28;20177;-67
2021/07/26 03:11:32;;;;;;;24.80;22.50;;;;;;;21.12;70.84;100582.22;5058418;28;20215;-66
2021/07/26 03:13:57;;;;;;;22.87;20.87;;;;;;;21.46;69.51;100581.84;5058014;28;20173;-68
2021/07/26 03:16:23;;;;;;;22.53;20.37;;;;;;;21.24;70.44;100591.53;5057664;28;20173;-67
2021/07/26 03:18:48;;;;;;;23.87;21.50;;;;;;;21.21;70.38;100587.19;5058448;28;20184;-67
2021/07/26 03:21:14;;;;;;;24.13;22.07;;;;;;;21.52;69.05;100586.88;5057571;28;20204;-68
2021/07/26 03:23:39;;;;;;;24.47;22.10;;;;;;;21.75;68.46;100589.63;5057603;28;20217;-68
2021/07/26 03:26:06;;;;;;;24.00;21.90;;;;;;;21.58;68.79;100595.56;5059118;28;20432;-67
2021/07/26 03:28:32;;;;;;;24.37;22.23;;;;;;;21.25;70.15;100587.97;5061538;28;20193;-67
2021/07/26 03:30:57;;;;;;;24.60;22.37;;;;;;;21.56;69.33;100585.03;5061486;28;20851;-67
2021/07/26 03:33:22;;;;;;;25.07;22.57;;;;;;;21.48;69.51;100585.28;5062115;28;20170;-67
2021/07/26 03:35:48;;;;;;;23.17;21.10;;;;;;;21.34;70.13;100577.84;5061360;28;20196;-67
2021/07/26 03:38:13;;;;;;;23.80;21.80;;;;;;;21.69;68.94;100582.78;5061335;28;20178;-67
2021/07/26 03:40:38;;;;;;;24.23;22.17;;;;;;;21.48;69.39;100581.78;5061690;28;20181;-67
2021/07/26 03:43:03;;;;;;;26.50;23.80;;;;;;;21.58;69.17;100592.91;5061156;28;20174;-68
2021/07/26 03:45:29;;;;;;;23.13;21.13;;;;;;;21.64;69.08;100580.28;5060825;28;20190;-67
2021/07/26 03:47:56;;;;;;;23.53;21.53;;;;;;;21.98;67.97;100581.59;5061567;28;20170;-67
2021/07/26 03:50:22;;;;;;;22.97;21.17;;;;;;;21.93;67.54;100580.91;5061022;28;20426;-67
2021/07/26 03:52:52;;;;;;;22.80;20.50;;;;;;;22.39;66.02;100583.50;5060887;28;20498;-67
2021/07/26 03:55:28;;;;;;;25.63;23.30;;;;;;;22.08;67.11;100584.72;5061569;28;20162;-66
2021/07/26 03:57:54;;;;;;;25.03;22.63;;;;;;;22.12;67.13;100585.47;5061106;28;20487;-67
2021/07/26 04:00:22;;;;;;;24.03;21.93;;;;;;;22.38;66.00;100584.44;5061039;28;20510;-67
2021/07/26 04:02:51;;;;;;;23.97;21.87;;;;;;;22.43;66.06;100577.13;5060866;28;20169;-67
2021/07/26 04:05:31;;;;;;;23.93;21.33;;;;;;;22.69;65.50;100580.44;5060944;28;20412;-67
2021/07/26 04:08:02;;;;;;;25.00;22.70;;;;;;;23.07;64.06;100583.22;5061030;28;20461;-67
2021/07/26 04:10:27;;;;;;;23.70;21.50;;;;;;;22.65;65.03;100582.38;5060742;28;20863;-67
2021/07/26 04:12:53;;;;;;;22.63;20.73;;;;;;;24.50;59.77;100582.66;5060586;28;20416;-68
2021/07/26 04:15:19;;;;;;;22.50;20.27;;;;;;;24.45;59.22;100576.69;5060778;28;20169;-68
2021/07/26 04:17:44;;;;;;;24.10;21.37;;;;;;;23.59;61.70;100587.09;5061382;28;20170;-68
2021/07/26 04:20:10;;;;;;;23.20;21.30;;;;;;;23.34;62.39;100583.78;5060823;28;20173;-68
2021/07/26 04:22:35;;;;;;;22.13;20.23;;;;;;;23.62;61.86;100593.13;5060461;28;20267;-68
2021/07/26 04:25:01;;;;;;;21.53;19.43;;;;;;;23.73;61.51;100586.44;5060280;28;20192;-67
2021/07/26 04:27:26;;;;;;;23.03;20.77;;;;;;;24.44;59.58;100583.84;5060468;28;20201;-67
2021/07/26 04:29:52;;;;;;;21.17;19.27;;;;;;;24.77;58.30;100582.22;5060452;28;20248;-67
2021/07/26 04:32:17;;;;;;;22.97;20.70;;;;;;;24.17;59.68;100596.75;5061115;28;20166;-67
2021/07/26 04:34:43;;;;;;;21.67;19.57;;;;;;;24.70;58.24;100581.66;5060218;28;20453;-67
2021/07/26 04:37:08;;;;;;;21.03;19.13;;;;;;;24.52;58.79;100586.97;5059443;28;20170;-67
2021/07/26 04:39:33;;;;;;;22.50;20.50;;;;;;;24.52;59.02;100584.31;5060510;28;20169;-67
2021/07/26 04:41:58;;;;;;;22.20;20.33;;;;;;;24.14;59.86;100586.22;5060250;28;20208;-67
2021/07/26 04:44:24;;;;;;;22.13;20.13;;;;;;;23.82;60.72;100586.00;5059933;28;20177;-67
2021/07/26 04:46:49;;;;;;;22.50;20.63;;;;;;;24.33;59.70;100586.19;5060507;28;20185;-67
2021/07/26 04:49:14;;;;;;;21.40;19.50;;;;;;;24.15;59.98;100591.50;5060177;28;20207;-68
2021/07/26 04:51:39;;;;;;;21.80;19.80;;;;;;;23.93;60.80;100582.84;5060050;28;20183;-67
2021/07/26 04:54:05;;;;;;;23.63;21.30;;;;;;;23.77;61.15;100583.53;5060262;28;20169;-67
2021/07/26 04:56:30;;;;;;;23.03;21.07;;;;;;;23.31;63.03;100585.72;5059856;28;20175;-67
2021/07/26 04:58:55;;;;;;;22.70;20.67;;;;;;;23.49;62.64;100576.88;5060024;28;20558;-67
2021/07/26 05:01:21;;;;;;;22.80;20.60;;;;;;;22.80;64.93;100574.66;5060366;28;20562;-67
2021/07/26 05:03:46;;;;;;;23.33;21.10;;;;;;;23.33;63.17;100573.22;5059523;28;20174;-67
2021/07/26 05:06:11;;;;;;;23.53;21.53;;;;;;;23.19;64.05;100579.16;5059649;28;20232;-67
2021/07/26 05:08:36;;;;;;;23.53;21.13;;;;;;;23.25;63.44;100572.72;5060243;28;20528;-67
2021/07/26 05:11:02;;;;;;;24.70;22.53;;;;;;;23.46;63.30;100573.50;5059583;28;20544;-67
2021/07/26 05:13:27;;;;;;;22.80;20.90;;;;;;;23.76;61.61;100583.63;5059524;28;20176;-67
2021/07/26 05:15:52;;;;;;;24.07;21.87;;;;;;;23.96;61.04;100585.34;5060262;28;20170;-67
2021/07/26 05:18:18;;;;;;;23.00;21.03;;;;;;;23.14;63.20;100592.66;5059620;28;20195;-67
2021/07/26 05:20:43;;;;;;;22.13;20.10;;;;;;;23.55;62.11;100591.69;5059538;28;20169;-68
2021/07/26 05:23:09;;;;;;;22.80;20.80;;;;;;;23.66;61.83;100594.69;5059218;28;20617;-67
2021/07/26 05:25:35;;;;;;;22.77;20.80;;;;;;;23.58;62.11;100596.00;5059377;28;20197;-67
2021/07/26 05:28:00;;;;;;;25.07;22.20;;;;;;;23.29;63.21;100588.44;5059609;28;20408;-67
2021/07/26 05:30:25;;;;;;;22.20;20.07;;;;;;;23.67;62.02;100591.09;5059355;28;20264;-67
2021/07/26 05:32:53;;;;;;;21.20;19.17;;;;;;;23.36;62.58;100591.69;5059208;28;20170;-67
2021/07/26 05:35:19;;;;;;;22.50;20.50;;;;;;;23.65;62.21;100592.09;5059711;28;20158;-67
2021/07/26 05:37:44;;;;;;;23.33;21.17;;;;;;;24.15;60.75;100586.19;5059151;28;20420;-66
2021/07/26 05:40:10;;;;;;;22.90;20.90;;;;;;;24.31;59.91;100599.56;5059291;28;20169;-67
2021/07/26 05:42:35;;;;;;;21.47;19.30;;;;;;;24.33;59.89;100594.19;5059198;28;20558;-67
2021/07/26 05:45:03;;;;;;;22.47;20.50;;;;;;;23.95;60.69;100596.94;5058973;28;20428;-67
2021/07/26 05:47:29;;;;;;;22.60;20.43;;;;;;;24.15;60.24;100595.94;5059081;28;20251;-68
2021/07/26 05:49:54;;;;;;;23.80;21.40;;;;;;;24.32;59.87;100603.13;5059144;28;20401;-68
2021/07/26 05:52:19;;;;;;;24.57;22.30;;;;;;;24.19;60.11;100608.19;5058963;28;20197;-68
2021/07/26 05:54:44;;;;;;;24.03;21.70;;;;;;;24.28;59.88;100604.22;5058809;28;20435;-68
2021/07/26 05:57:12;;;;;;;22.30;20.30;;;;;;;24.34;59.91;100601.22;5059198;28;20158;-68
2021/07/26 05:59:38;;;;;;;24.10;21.90;;;;;;;24.21;60.37;100601.00;5058852;28;20169;-68
2021/07/26 06:02:03;;;;;;;24.23;21.80;;;;;;;24.26;60.57;100604.28;5058766;28;20479;-67
2021/07/26 06:04:29;;;;;;;25.27;22.73;;;;;;;24.38;60.10;100595.69;5059097;28;20245;-67
2021/07/26 06:06:55;;;;;;;24.83;22.47;;;;;;;24.14;61.17;100600.44;5058504;28;20738;-67
2021/07/26 06:09:21;;;;;;;24.57;22.07;;;;;;;24.19;61.47;100598.41;5058482;28;20201;-67
2021/07/26 06:11:47;;;;;;;22.73;20.53;;;;;;;24.13;61.07;100593.38;5058846;28;20723;-66
2021/07/26 06:14:12;;;;;;;21.80;18.40;;;;;;;24.17;59.89;100592.28;5058268;28;20558;-67
2021/07/26 06:16:46;;;;;;;21.10;19.07;;;;;;;24.29;59.33;100590.81;5058400;28;20169;-67
2021/07/26 06:19:11;;;;;;;18.33;16.70;;;;;;;24.41;58.37;100584.00;5058213;28;20166;-68
2021/07/26 06:21:44;;;;;;;18.20;16.60;;;;;;;24.40;58.39;100584.94;5058262;28;20679;-66
2021/07/26 06:24:09;;;;;;;18.40;16.50;;;;;;;24.78;57.21;100576.78;5058015;28;20225;-67
2021/07/26 06:26:35;;;;;;;17.37;15.73;;;;;;;24.45;57.09;100577.56;5057874;28;20528;-67
2021/07/26 06:29:03;;;;;;;17.33;15.83;;;;;;;24.87;56.24;100572.78;5058097;28;20204;-67
2021/07/26 06:31:28;;;;;;;15.73;14.53;;;;;;;24.87;55.78;100576.31;5058151;28;20495;-67
2021/07/26 06:33:53;;;;;;;15.83;14.27;;;;;;;25.30;55.50;100574.94;5058271;28;20448;-67
2021/07/26 06:36:18;;;;;;;16.00;14.70;;;;;;;25.17;55.07;100580.94;5058158;28;20181;-68
2021/07/26 06:38:44;;;;;;;15.97;14.63;;;;;;;25.44;53.86;100577.75;5057853;28;20510;-68
2021/07/26 06:41:09;;;;;;;15.20;13.90;;;;;;;25.47;53.72;100576.72;5058727;28;20165;-68
2021/07/26 06:43:34;;;;;;;14.90;13.40;;;;;;;25.73;52.71;100577.91;5057993;28;20205;-69
2021/07/26 06:46:04;;;;;;;12.70;11.50;;;;;;;25.69;51.83;100582.56;5058038;28;20283;-67
2021/07/26 06:48:29;;;;;;;13.17;11.93;;;;;;;26.78;48.50;100582.53;5058668;28;20174;-67
2021/07/26 06:50:54;;;;;;;11.73;10.53;;;;;;;27.04;47.88;100593.44;5058062;28;20473;-68
2021/07/26 06:53:20;;;;;;;11.60;10.60;;;;;;;26.17;49.78;100601.25;5057579;28;20501;-68
2021/07/26 06:55:45;;;;;;;12.43;11.23;;;;;;;26.86;47.77;100604.31;5056421;28;20494;-70
2021/07/26 06:58:10;;;;;;;12.47;10.53;;;;;;;26.77;48.55;100596.00;5055234;28;20192;-68
2021/07/26 07:00:35;;;;;;;11.23;10.33;;;;;;;26.40;49.83;100599.06;5056876;28;20181;-69
2021/07/26 07:03:01;;;;;;;12.80;11.80;;;;;;;26.23;50.22;100598.19;5057974;28;20162;-66
2021/07/26 07:05:26;;;;;;;11.53;10.53;;;;;;;25.15;52.97;100608.63;5057476;28;20181;-67
2021/07/26 07:07:51;;;;;;;12.20;11.10;;;;;;;25.48;52.48;100610.44;5057611;28;20169;-67
2021/07/26 07:10:17;;;;;;;12.73;11.63;;;;;;;25.40;52.09;100605.56;5058322;28;20169;-68
2021/07/26 07:12:43;;;;;;;12.60;11.40;;;;;;;25.17;52.87;100606.78;5057430;28;20252;-69
2021/07/26 07:15:08;;;;;;;12.23;11.10;;;;;;;26.27;50.42;100595.38;5057795;28;20554;-68
2021/07/26 07:17:34;;;;;;;11.17;10.27;;;;;;;26.69;49.13;100597.28;5058045;28;20181;-69
2021/07/26 07:20:00;;;;;;;11.97;10.70;;;;;;;29.42;42.63;100591.13;5057653;28;20192;-70
2021/07/26 07:22:25;;;;;;;11.17;10.27;;;;;;;28.05;44.69;100598.69;5057524;28;20308;-68
2021/07/26 07:24:50;;;;;;;10.63;9.80;;;;;;;29.42;42.28;100592.94;5050555;28;20216;-68
2021/07/26 07:27:16;;;;;;;10.30;9.40;;;;;;;28.51;43.89;100598.28;5040795;28;20193;-68
2021/07/26 07:29:41;;;;;;;10.17;9.37;;;;;;;27.76;45.23;100600.56;5057585;28;20539;-68
2021/07/26 07:32:11;;;;;;;10.37;9.37;;;;;;;27.94;45.55;100610.09;5057845;28;20421;-67
2021/07/26 07:34:37;;;;;;;10.17;9.27;;;;;;;28.58;43.57;100614.81;5057454;28;20428;-69
2021/07/26 07:37:04;;;;;;;9.47;8.77;;;;;;;28.75;43.63;100604.78;5057541;28;20415;-69
2021/07/26 07:39:30;;;;;;;9.63;8.93;;;;;;;28.62;43.94;100615.44;5057710;28;20221;-68
2021/07/26 07:41:55;;;;;;;9.40;8.60;;;;;;;27.05;46.74;100622.78;5038789;28;20432;-68
2021/07/26 07:44:21;;;;;;;9.43;8.73;;;;;;;26.34;48.98;100618.94;5037315;28;20170;-69
2021/07/26 07:46:46;;;;;;;8.80;8.00;;;;;;;26.74;47.80;100621.13;5037654;28;20421;-69
2021/07/26 07:49:11;;;;;;;9.73;8.93;;;;;;;26.59;48.60;100617.53;5037459;28;20175;-68
2021/07/26 07:51:36;;;;;;;10.20;9.30;;;;;;;26.33;49.12;100614.59;5037191;28;20166;-67
2021/07/26 07:54:02;;;;;;;10.23;9.43;;;;;;;25.87;50.06;100634.09;5037564;28;20178;-67
2021/07/26 07:56:27;;;;;;;10.10;9.20;;;;;;;25.76;50.02;100631.13;5037309;28;20193;-67
2021/07/26 07:58:55;;;;;;;11.70;9.73;;;;;;;25.62;51.14;100623.91;5054887;28;20188;-69
2021/07/26 08:01:29;;;;;;;10.10;9.20;;;;;;;25.44;52.13;100631.13;5057653;28;20257;-68
2021/07/26 08:03:54;;;;;;;11.40;9.40;;;;;;;25.37;51.62;100627.03;5057179;28;20412;-68
2021/07/26 08:06:19;;;;;;;10.20;9.30;;;;;;;25.57;51.02;100631.28;5057198;28;20455;-68
2021/07/26 08:08:45;;;;;;;11.03;9.57;;;;;;;25.33;52.01;100633.47;5057674;28;20436;-69
2021/07/26 08:11:12;;;;;;;9.07;8.37;;;;;;;25.59;50.76;100634.75;5057267;28;20174;-65
2021/07/26 08:13:39;;;;;;;10.90;9.20;;;;;;;25.59;50.50;100637.44;5059566;28;20227;-67
2021/07/26 08:16:05;;;;;;;9.00;8.20;;;;;;;25.61;50.74;100638.19;5061188;28;20400;-66
2021/07/26 08:18:30;;;;;;;11.13;8.57;;;;;;;25.54;51.34;100635.00;5060699;28;20413;-66
2021/07/26 08:20:55;;;;;;;9.43;8.53;;;;;;;25.33;52.28;100641.47;5060791;28;20181;-66
2021/07/26 08:23:20;;;;;;;9.60;8.70;;;;;;;24.89;53.71;100641.06;5060460;28;20221;-66
2021/07/26 08:25:46;;;;;;;9.43;8.60;;;;;;;25.02;53.33;100640.47;5060465;28;20216;-67
2021/07/26 08:28:11;;;;;;;9.57;8.50;;;;;;;25.71;51.80;100639.41;5060792;28;20189;-66
2021/07/26 08:30:38;;;;;;;12.90;11.70;;;;;;;25.55;53.72;100644.72;5060380;28;20185;-67
2021/07/26 08:33:03;;;;;;;10.20;9.17;;;;;;;25.86;51.87;100637.69;5060141;28;20420;-66
2021/07/26 08:35:31;;;;;;;12.53;9.53;;;;;;;25.75;52.42;100642.78;5060846;28;20411;-66
2021/07/26 08:37:57;;;;;;;12.40;8.83;;;;;;;25.38;52.28;100655.47;5060545;28;20551;-67
2021/07/26 08:40:24;;;;;;;9.10;8.30;;;;;;;25.96;51.71;100654.06;5059627;28;20671;-66
2021/07/26 08:42:50;;;;;;;9.17;8.37;;;;;;;26.28;50.69;100646.06;5060523;28;20240;-68
2021/07/26 08:45:16;;;;;;;9.20;8.30;;;;;;;26.71;50.88;100648.03;5060138;28;20436;-67
2021/07/26 08:47:43;;;;;;;8.80;8.00;;;;;;;26.69;50.64;100653.44;5060095;28;20463;-67
2021/07/26 08:50:09;;;;;;;9.00;8.20;;;;;;;26.23;50.95;100657.00;5060445;28;20252;-66
2021/07/26 08:52:40;;;;;;;10.10;8.43;;;;;;;26.18;51.91;100656.41;5059991;28;20459;-66
2021/07/26 08:55:09;;;;;;;8.40;7.60;;;;;;;26.22;50.43;100647.28;5060079;28;20507;-66
2021/07/26 08:57:35;;;;;;;8.30;7.50;;;;;;;26.55;50.06;100651.59;5060325;28;20467;-66
2021/07/26 09:00:01;;;;;;;8.40;7.50;;;;;;;26.21;50.30;100645.53;5060102;28;20420;-67
2021/07/26 09:02:27;;;;;;;7.60;7.00;;;;;;;26.35;49.48;100639.41;5059667;28;20169;-67
2021/07/26 09:04:52;;;;;;;8.20;7.50;;;;;;;26.35;49.05;100635.88;5060301;28;20415;-66
2021/07/26 09:07:24;;;;;;;8.27;7.57;;;;;;;26.72;48.51;100636.38;5059656;28;20201;-66
2021/07/26 09:09:50;;;;;;;9.17;8.20;;;;;;;26.22;49.74;100636.59;5059895;28;20169;-69
2021/07/26 09:12:36;;;;;;;8.47;7.67;;;;;;;26.34;50.49;100640.34;5060291;28;20835;-67
2021/07/26 09:15:05;;;;;;;8.90;8.10;;;;;;;25.76;51.89;100651.66;5059668;28;20180;-67
2021/07/26 09:17:43;;;;;;;9.70;8.80;;;;;;;25.63;51.49;100657.66;5059706;28;20432;-67
2021/07/26 09:20:09;;;;;;;9.00;8.10;;;;;;;25.72;51.43;100657.16;5059642;28;20411;-68
2021/07/26 09:22:41;;;;;;;9.63;8.50;;;;;;;26.23;50.52;100657.00;5058356;28;20989;-68
2021/07/26 09:25:23;;;;;;;9.10;8.30;;;;;;;26.10;51.15;100666.69;5057866;28;20420;-67
2021/07/26 09:28:01;;;;;;;8.33;7.53;;;;;;;26.26;49.59;100672.00;5059368;28;20459;-67
2021/07/26 09:30:38;;;;;;;9.40;8.53;;;;;;;25.64;52.34;100683.44;5059383;28;20427;-68
2021/07/26 09:33:13;;;;;;;10.20;9.20;;;;;;;25.96;51.78;100682.59;5059301;28;20451;-67
2021/07/26 09:35:39;;;;;;;10.43;9.53;;;;;;;25.94;51.62;100681.78;5059402;28;20404;-68
2021/07/26 09:38:04;;;;;;;16.67;10.20;;;;;;;24.89;54.90;100685.56;5058651;28;20864;-68
2021/07/26 09:40:32;;;;;;;13.33;11.00;;;;;;;25.14;55.85;100685.16;5059136;28;20166;-68
2021/07/26 09:43:20;;;;;;;13.93;11.73;;;;;;;24.41;59.90;100693.25;5059116;28;20543;-67
2021/07/26 09:45:50;;;;;;;12.60;11.40;;;;;;;25.13;57.22;100690.56;5058887;28;20444;-67
2021/07/26 09:48:16;;;;;;;13.37;11.90;;;;;;;24.71;60.01;100701.53;5058914;28;20415;-67
2021/07/26 09:50:42;;;;;;;13.97;12.67;;;;;;;24.45;60.91;100705.50;5058948;28;20419;-67
2021/07/26 09:53:09;;;;;;;14.03;12.73;;;;;;;24.42;60.89;100702.94;5058850;28;20427;-68
2021/07/26 09:55:34;;;;;;;14.07;12.67;;;;;;;24.34;60.89;100698.00;5059360;28;20687;-67
2021/07/26 09:58:01;;;;;;;14.33;12.93;;;;;;;23.84;62.84;100699.47;5058776;28;20412;-67
2021/07/26 10:00:27;;;;;;;14.70;13.30;;;;;;;24.32;61.35;100699.88;5058753;28;20445;-67
2021/07/26 10:02:54;;;;;;;15.50;14.17;;;;;;;24.63;60.22;100690.41;5059104;28;20412;-68
2021/07/26 10:05:20;;;;;;;15.20;13.00;;;;;;;24.14;60.68;100698.97;5058774;28;20734;-68
2021/07/26 10:07:46;;;;;;;14.10;12.90;;;;;;;24.02;61.11;100692.44;5058631;28;20471;-67
2021/07/26 10:10:12;;;;;;;15.83;13.50;;;;;;;24.21;60.42;100708.38;5058322;28;20466;-68
2021/07/26 10:12:41;;;;;;;13.70;12.27;;;;;;;24.52;59.64;100706.91;5058379;28;20225;-67
2021/07/26 10:15:06;;;;;;;13.03;11.73;;;;;;;24.51;59.11;100709.66;5057859;28;20502;-67
2021/07/26 10:17:32;;;;;;;12.67;11.53;;;;;;;24.57;58.77;100713.81;5058243;28;20459;-67
2021/07/26 10:19:57;;;;;;;13.00;11.70;;;;;;;24.62;57.57;100711.81;5058408;28;20174;-67
2021/07/26 10:22:25;;;;;;;13.87;12.03;;;;;;;25.14;56.48;100719.84;5058114;28;20517;-67
2021/07/26 10:25:09;;;;;;;11.57;10.40;;;;;;;25.00;57.11;100727.66;5057480;28;20158;-67
2021/07/26 10:27:36;;;;;;;12.07;11.07;;;;;;;24.40;58.71;100726.16;5057325;28;20736;-68
2021/07/26 10:30:01;;;;;;;11.77;10.67;;;;;;;24.52;58.39;100725.56;5058028;28;20506;-67
2021/07/26 10:32:30;;;;;;;10.80;9.90;;;;;;;24.04;60.05;100732.28;5057964;28;20451;-67
2021/07/26 10:34:59;;;;;;;11.27;10.17;;;;;;;23.98;59.98;100729.94;5058129;28;20617;-66
2021/07/26 10:37:40;;;;;;;11.13;10.13;;;;;;;24.14;60.03;100720.28;5058727;28;20494;-67
2021/07/26 10:40:19;;;;;;;12.20;9.50;;;;;;;24.92;57.11;100719.22;5058101;28;20415;-67
2021/07/26 10:42:45;;;;;;;9.90;8.90;;;;;;;25.04;56.68;100715.91;5057942;28;20681;-67
2021/07/26 10:45:29;;;;;;;10.27;8.90;;;;;;;25.35;55.79;100711.69;5057704;28;20436;-67
2021/07/26 10:48:22;;;;;;;9.10;8.27;;;;;;;24.25;58.62;100719.78;5057898;28;20255;-67
2021/07/26 10:50:52;;;;;;;9.50;8.23;;;;;;;24.76;57.62;100721.78;5057744;28;20491;-67
2021/07/26 10:53:37;;;;;;;8.07;7.37;;;;;;;24.89;56.81;100710.41;5057663;28;20711;-68
2021/07/26 10:56:09;;;;;;;8.53;7.83;;;;;;;25.15;56.24;100710.88;5057675;28;20438;-67
2021/07/26 10:58:40;;;;;;;9.77;8.40;;;;;;;24.79;57.35;100714.50;5057920;28;20411;-67
2021/07/26 11:01:24;;;;;;;8.93;8.03;;;;;;;24.78;58.20;100703.91;5057642;28;20416;-67
2021/07/26 11:03:51;;;;;;;12.63;8.23;;;;;;;25.55;55.33;100689.25;5057561;28;20817;-67
2021/07/26 11:06:39;;;;;;;8.17;7.40;;;;;;;25.60;55.08;100697.00;5057823;28;20459;-68
2021/07/26 11:09:19;;;;;;;9.00;8.10;;;;;;;25.37;55.68;100693.75;5057680;28;20411;-68
2021/07/26 11:11:49;;;;;;;8.27;7.47;;;;;;;26.41;52.42;100682.75;5057626;28;20408;-69